Time;durP1;ratioP1;P1;durP2;ratioP2;P2;SDS_P1;SDS_P2;PMS_P1;PMS_P2;Temp;Humidity;BMP_temperature;BMP_pressure;BME280_temperature;BME280_humidity;BME280_pressure;Samples;Min_cycle;Max_cycle;Signal;HPM_P1;HPM_P2
2022/07/05 00:02:06;;;;;;;2.17;1.80;;;17.20;67.10;;;;;;5094000;28;20031;-48
2022/07/05 00:04:32;;;;;;;2.90;1.98;;;17.10;67.20;;;;;;5093165;28;20024;-48
2022/07/05 00:09:42;;;;;;;5.57;1.83;;;17.10;67.40;;;;;;5093706;28;20497;-50
2022/07/05 00:12:08;;;;;;;2.40;1.58;;;17.10;67.20;;;;;;5093677;28;20032;-48
2022/07/05 00:14:35;;;;;;;3.67;1.85;;;17.10;67.10;;;;;;5093870;28;20020;-48
2022/07/05 00:17:03;;;;;;;4.80;1.67;;;17.20;67.10;;;;;;5093043;28;20040;-48
2022/07/05 00:19:28;;;;;;;2.50;1.63;;;17.30;67.00;;;;;;5093104;28;20031;-47
2022/07/05 00:21:54;;;;;;;1.75;1.20;;;17.30;67.10;;;;;;5093422;28;20451;-47
2022/07/05 00:24:20;;;;;;;5.07;2.08;;;17.30;66.80;;;;;;5093076;28;20353;-47
2022/07/05 00:26:45;;;;;;;3.05;1.75;;;17.30;66.70;;;;;;5093234;28;20031;-48
2022/07/05 00:29:11;;;;;;;5.03;2.40;;;17.30;66.30;;;;;;5091652;28;20523;-47
2022/07/05 00:31:36;;;;;;;3.08;1.60;;;17.30;66.70;;;;;;5091568;28;20115;-48
2022/07/05 00:34:02;;;;;;;4.75;1.73;;;17.30;66.40;;;;;;5092843;28;20200;-47
2022/07/05 00:36:28;;;;;;;2.13;1.70;;;17.30;66.20;;;;;;5092969;28;20027;-47
2022/07/05 00:38:53;;;;;;;3.03;1.73;;;17.20;66.30;;;;;;5092796;28;20016;-47
2022/07/05 00:41:19;;;;;;;4.53;1.73;;;17.20;66.40;;;;;;5093252;28;20376;-51
2022/07/05 00:43:57;;;;;;;3.28;1.90;;;17.10;66.30;;;;;;5091732;28;20020;-47
2022/07/05 00:46:24;;;;;;;3.17;1.50;;;17.10;66.70;;;;;;5093032;28;20020;-47
2022/07/05 00:48:50;;;;;;;4.82;1.50;;;17.00;66.60;;;;;;5092995;28;20036;-48
2022/07/05 00:51:15;;;;;;;2.13;1.50;;;17.10;66.60;;;;;;5092945;28;20557;-49
2022/07/05 00:53:45;;;;;;;2.35;1.77;;;17.10;66.60;;;;;;5093250;28;20024;-48
2022/07/05 00:56:12;;;;;;;2.17;1.40;;;17.10;66.80;;;;;;5092812;28;20046;-47
2022/07/05 00:58:38;;;;;;;3.75;2.28;;;17.20;67.10;;;;;;5092640;28;20422;-47
2022/07/05 01:01:06;;;;;;;3.83;1.95;;;17.10;66.60;;;;;;5092787;28;20019;-47
2022/07/05 01:03:32;;;;;;;4.72;1.50;;;17.10;66.60;;;;;;5095468;28;20034;-48
2022/07/05 01:06:00;;;;;;;4.03;1.65;;;17.20;66.50;;;;;;5097038;28;20024;-46
2022/07/05 01:08:27;;;;;;;4.20;1.60;;;17.20;66.20;;;;;;5096639;28;20032;-49
2022/07/05 01:10:55;;;;;;;4.68;1.67;;;17.30;66.00;;;;;;5094876;28;20387;-47
2022/07/05 01:13:22;;;;;;;4.38;1.58;;;17.30;66.70;;;;;;5096211;28;20448;-47
2022/07/05 01:15:48;;;;;;;1.90;1.63;;;17.30;66.10;;;;;;5095788;28;20043;-49
2022/07/05 01:18:15;;;;;;;2.25;1.40;;;17.30;66.30;;;;;;5096087;28;20028;-48
2022/07/05 01:20:41;;;;;;;2.17;1.70;;;17.30;67.00;;;;;;5096150;28;20103;-47
2022/07/05 01:23:08;;;;;;;2.85;1.45;;;17.30;66.80;;;;;;5096071;28;20535;-48
2022/07/05 01:25:33;;;;;;;2.17;1.92;;;17.30;66.90;;;;;;5096048;28;20491;-46
2022/07/05 01:28:01;;;;;;;4.05;1.90;;;17.40;66.30;;;;;;5095975;28;20086;-47
2022/07/05 01:30:28;;;;;;;3.17;1.92;;;17.40;65.00;;;;;;5095955;28;20417;-47
2022/07/05 01:32:53;;;;;;;2.25;1.50;;;17.40;65.20;;;;;;5095892;28;20020;-47
2022/07/05 01:35:23;;;;;;;2.65;1.98;;;17.40;65.90;;;;;;5095725;28;20031;-47
2022/07/05 01:37:50;;;;;;;2.33;1.43;;;17.30;65.40;;;;;;5095816;28;20020;-47
2022/07/05 01:40:16;;;;;;;3.10;1.50;;;17.30;66.80;;;;;;5095771;28;20433;-48
2022/07/05 01:42:42;;;;;;;7.63;1.90;;;17.30;65.60;;;;;;5095985;28;20525;-47
2022/07/05 01:45:08;;;;;;;4.28;1.90;;;17.30;65.90;;;;;;5095877;28;20017;-49
2022/07/05 01:47:44;;;;;;;1.80;1.65;;;17.20;66.10;;;;;;5095974;28;20073;-48
2022/07/05 01:50:15;;;;;;;4.32;3.20;;;17.10;66.10;;;;;;5095757;28;20300;-51
2022/07/05 01:52:43;;;;;;;2.08;1.77;;;17.10;66.30;;;;;;5094473;28;20480;-47
2022/07/05 01:55:09;;;;;;;7.78;2.13;;;17.20;67.40;;;;;;5095433;28;20082;-48
2022/07/05 01:57:35;;;;;;;10.23;3.45;;;17.20;68.00;;;;;;5095876;28;20028;-47
2022/07/05 02:00:01;;;;;;;2.72;1.65;;;17.10;68.90;;;;;;5095440;28;20146;-49
2022/07/05 02:02:27;;;;;;;2.20;1.63;;;17.00;70.00;;;;;;5094190;28;20056;-47
2022/07/05 02:04:52;;;;;;;3.17;1.85;;;16.90;70.30;;;;;;5095587;28;20024;-48
2022/07/05 02:07:18;;;;;;;2.17;1.90;;;16.80;70.70;;;;;;5095452;28;20097;-47
2022/07/05 02:09:44;;;;;;;4.38;1.70;;;16.80;71.30;;;;;;5095802;28;20130;-48
2022/07/05 02:12:10;;;;;;;2.90;1.80;;;16.60;71.60;;;;;;5095693;28;20086;-48
2022/07/05 02:14:36;;;;;;;2.05;1.63;;;16.50;72.40;;;;;;5095964;28;20044;-47
2022/07/05 02:17:01;;;;;;;1.63;1.38;;;16.50;72.70;;;;;;5095049;28;20083;-47
2022/07/05 02:19:27;;;;;;;2.00;1.60;;;16.60;72.40;;;;;;5095490;28;20116;-47
2022/07/05 02:21:53;;;;;;;3.58;1.75;;;16.60;72.50;;;;;;5095247;28;20030;-47
2022/07/05 02:24:20;;;;;;;4.13;2.10;;;16.50;72.50;;;;;;5093794;28;20023;-47
2022/07/05 02:26:46;;;;;;;2.50;1.60;;;16.30;72.90;;;;;;5094933;28;20030;-47
2022/07/05 02:29:11;;;;;;;1.98;1.40;;;16.30;73.50;;;;;;5095203;28;20031;-47
2022/07/05 02:31:37;;;;;;;4.10;1.70;;;16.30;73.70;;;;;;5095150;28;20023;-48
2022/07/05 02:34:03;;;;;;;7.72;3.38;;;16.30;73.90;;;;;;5093590;28;20027;-47
2022/07/05 02:36:28;;;;;;;3.17;1.88;;;16.30;74.10;;;;;;5094874;28;20028;-48
2022/07/05 02:38:54;;;;;;;1.98;1.30;;;16.30;74.00;;;;;;5094709;28;20095;-48
2022/07/05 02:41:20;;;;;;;4.60;1.95;;;16.20;74.10;;;;;;5093449;28;20024;-48
2022/07/05 02:43:46;;;;;;;7.28;3.28;;;16.00;74.50;;;;;;5093381;28;20077;-52
2022/07/05 02:46:11;;;;;;;3.92;1.88;;;16.10;74.50;;;;;;5076497;28;20024;-47
2022/07/05 02:48:38;;;;;;;1.92;1.65;;;16.10;74.70;;;;;;5094887;28;20066;-50
2022/07/05 02:51:04;;;;;;;3.30;1.80;;;16.10;75.10;;;;;;5094844;28;20057;-47
2022/07/05 02:53:30;;;;;;;1.65;1.55;;;16.00;75.20;;;;;;5094519;28;20137;-48
2022/07/05 02:55:56;;;;;;;6.22;1.80;;;15.90;75.40;;;;;;5093039;28;20031;-48
2022/07/05 02:58:22;;;;;;;3.35;1.77;;;15.80;76.00;;;;;;5094391;28;20380;-50
2022/07/05 03:00:49;;;;;;;3.80;1.50;;;15.80;76.10;;;;;;5094259;28;20088;-48
2022/07/05 03:03:15;;;;;;;3.20;2.00;;;15.90;76.10;;;;;;5094189;28;20024;-49
2022/07/05 20:16:30;;;;;;;2.38;0.95;;;18.80;55.00;;;;;;5103177;27;20834;-48
2022/07/05 20:18:56;;;;;;;3.40;1.20;;;18.70;56.10;;;;;;5071014;28;20477;-46
2022/07/05 20:21:21;;;;;;;4.63;1.30;;;18.60;56.40;;;;;;5070295;28;20039;-48
2022/07/05 20:23:47;;;;;;;2.38;1.40;;;18.60;56.60;;;;;;5070140;28;20035;-47
2022/07/05 20:26:13;;;;;;;4.18;1.50;;;18.50;57.30;;;;;;5070604;28;20527;-47
2022/07/05 20:28:38;;;;;;;5.50;2.05;;;18.40;58.50;;;;;;5070278;28;20499;-47
2022/07/05 20:31:04;;;;;;;4.05;1.98;;;18.30;59.60;;;;;;5070501;28;20048;-47
2022/07/05 20:33:30;;;;;;;6.97;2.67;;;18.30;60.40;;;;;;5070248;28;20035;-46
2022/07/05 20:35:55;;;;;;;6.03;2.28;;;18.20;61.00;;;;;;5070080;28;20036;-47
2022/07/05 20:38:21;;;;;;;4.28;2.00;;;18.20;61.50;;;;;;5070367;28;20025;-48
2022/07/05 20:40:47;;;;;;;5.70;1.70;;;18.10;62.00;;;;;;5069835;28;20044;-48
2022/07/05 20:43:12;;;;;;;4.50;1.40;;;18.10;62.30;;;;;;5070067;28;20020;-48
2022/07/05 20:45:38;;;;;;;1.55;1.10;;;18.10;62.40;;;;;;5069863;28;20040;-49
2022/07/05 20:48:04;;;;;;;3.15;1.75;;;18.00;62.60;;;;;;5069908;28;20033;-48
2022/07/05 20:50:30;;;;;;;4.18;2.50;;;17.90;63.00;;;;;;5069890;28;20078;-49
2022/07/05 20:52:55;;;;;;;4.55;1.85;;;17.90;63.20;;;;;;5069879;28;20028;-48
2022/07/05 20:55:22;;;;;;;8.07;1.75;;;17.90;63.20;;;;;;5069788;28;20025;-48
2022/07/05 20:57:48;;;;;;;4.45;1.73;;;17.80;63.30;;;;;;5069529;28;20028;-47
2022/07/05 21:00:14;;;;;;;3.78;1.80;;;17.80;63.30;;;;;;5069455;28;20373;-48
2022/07/05 21:02:40;;;;;;;4.68;1.52;;;17.80;63.50;;;;;;5069571;28;20021;-51
2022/07/05 21:05:06;;;;;;;4.47;1.80;;;17.80;63.50;;;;;;5069314;28;20027;-48
2022/07/05 21:07:32;;;;;;;3.95;2.10;;;17.80;63.50;;;;;;5068050;28;20029;-49
2022/07/05 21:09:57;;;;;;;6.10;1.83;;;17.70;63.50;;;;;;5069727;28;20078;-48
2022/07/05 21:12:23;;;;;;;6.57;1.90;;;17.70;63.70;;;;;;5068093;28;20025;-47
2022/07/05 21:14:49;;;;;;;3.35;1.95;;;17.70;63.60;;;;;;5067533;28;20048;-48
2022/07/05 21:17:15;;;;;;;4.82;1.95;;;17.70;63.70;;;;;;5067948;28;20020;-48
2022/07/05 21:19:40;;;;;;;4.88;2.53;;;17.60;63.90;;;;;;5069132;28;20047;-48
2022/07/05 21:22:08;;;;;;;9.77;1.88;;;17.60;64.10;;;;;;5051019;28;20496;-48
2022/07/05 21:24:35;;;;;;;3.80;1.90;;;17.60;64.10;;;;;;5068295;28;20029;-48
2022/07/05 21:27:01;;;;;;;5.93;2.90;;;17.50;64.40;;;;;;5060805;28;20071;-48
2022/07/05 21:29:27;;;;;;;3.40;1.98;;;17.40;64.90;;;;;;5056039;28;20048;-48
2022/07/05 21:31:53;;;;;;;4.95;1.73;;;17.40;64.90;;;;;;5054610;28;20036;-48
2022/07/05 21:34:19;;;;;;;3.55;1.83;;;17.40;65.00;;;;;;5056143;28;20381;-47
2022/07/05 21:36:45;;;;;;;8.60;2.10;;;17.30;65.30;;;;;;5055676;28;20111;-48
2022/07/05 21:39:11;;;;;;;4.68;1.98;;;17.30;65.70;;;;;;5055954;28;20025;-50
2022/07/05 21:41:37;;;;;;;9.05;1.60;;;17.30;65.60;;;;;;5055470;28;20029;-50
2022/07/05 21:44:04;;;;;;;3.97;2.03;;;17.30;65.60;;;;;;5055854;28;20094;-48
2022/07/05 21:46:30;;;;;;;6.05;2.67;;;17.30;65.80;;;;;;5054178;28;20017;-47
2022/07/05 21:48:55;;;;;;;4.03;1.92;;;17.30;65.70;;;;;;5055630;28;20025;-47
2022/07/05 21:51:22;;;;;;;4.10;2.05;;;17.20;65.90;;;;;;5055419;28;20025;-47
2022/07/05 21:53:48;;;;;;;8.15;1.77;;;17.10;66.10;;;;;;5055157;28;20079;-47
2022/07/05 21:56:14;;;;;;;2.53;1.73;;;17.10;66.20;;;;;;5055225;28;20211;-48
2022/07/05 22:04:28;;;;;;;3.15;1.50;;;17.00;66.60;;;;;;5055667;28;20376;-48
2022/07/05 22:07:00;;;;;;;2.13;1.38;;;16.80;66.70;;;;;;5055342;28;20021;-48
2022/07/05 22:09:26;;;;;;;2.53;1.70;;;16.80;66.80;;;;;;5055410;28;20021;-48
2022/07/05 22:11:53;;;;;;;6.97;1.88;;;16.80;66.90;;;;;;5056311;28;20334;-47
2022/07/05 22:14:19;;;;;;;2.10;1.75;;;16.80;67.20;;;;;;5054319;28;20047;-47
2022/07/05 22:16:45;;;;;;;2.63;1.95;;;16.80;67.40;;;;;;5055687;28;20028;-47
2022/07/05 22:19:10;;;;;;;1.60;1.27;;;16.70;67.40;;;;;;5055538;28;20039;-50
2022/07/05 22:21:36;;;;;;;6.85;2.45;;;16.80;67.50;;;;;;5055454;28;20017;-48
2022/07/05 22:24:02;;;;;;;2.67;1.45;;;16.80;67.20;;;;;;5054186;28;20021;-48
2022/07/05 22:26:27;;;;;;;2.75;1.40;;;16.70;67.50;;;;;;5055123;28;20492;-48
2022/07/05 22:28:53;;;;;;;1.75;1.20;;;16.60;67.70;;;;;;5055487;28;20036;-48
2022/07/05 22:31:19;;;;;;;8.52;1.77;;;16.60;67.80;;;;;;5055535;28;20029;-47
2022/07/05 22:33:46;;;;;;;1.15;1.02;;;16.60;67.60;;;;;;5054714;28;20450;-48
2022/07/05 22:36:11;;;;;;;3.25;1.48;;;16.60;67.50;;;;;;5054744;28;20075;-49
2022/07/05 22:38:38;;;;;;;4.82;2.25;;;16.60;67.70;;;;;;5054019;28;20024;-50
2022/07/05 22:41:03;;;;;;;6.25;1.48;;;16.60;67.60;;;;;;5054648;28;20461;-47
2022/07/05 22:43:29;;;;;;;3.92;1.35;;;16.50;67.90;;;;;;5054282;28;20082;-48
2022/07/05 22:45:55;;;;;;;1.58;1.27;;;16.60;67.70;;;;;;5054500;28;20070;-48
2022/07/05 22:48:20;;;;;;;5.13;2.05;;;16.60;67.80;;;;;;5054330;28;20037;-48
2022/07/05 22:50:46;;;;;;;4.68;1.48;;;16.60;67.50;;;;;;5054665;28;20027;-47
2022/07/05 22:53:12;;;;;;;4.82;1.80;;;16.50;67.90;;;;;;5054287;28;20025;-48
2022/07/05 22:55:37;;;;;;;4.47;1.60;;;16.30;68.30;;;;;;5054329;28;20029;-49
2022/07/05 22:58:04;;;;;;;6.45;1.75;;;16.30;68.50;;;;;;5053215;28;20021;-48
2022/07/05 23:00:30;;;;;;;3.75;1.45;;;16.40;68.20;;;;;;5054502;28;20602;-47
2022/07/05 23:02:55;;;;;;;6.40;2.15;;;16.30;68.60;;;;;;5054185;28;20115;-47
2022/07/05 23:05:21;;;;;;;10.65;2.67;;;16.00;69.30;;;;;;5054328;28;20346;-50
2022/07/05 23:07:47;;;;;;;2.33;1.60;;;16.00;69.60;;;;;;5054311;28;20428;-48
2022/07/05 23:10:13;;;;;;;6.78;1.60;;;16.00;69.50;;;;;;5052784;28;20432;-48
2022/07/05 23:12:38;;;;;;;5.32;1.40;;;15.80;70.10;;;;;;5054305;28;20020;-48
2022/07/05 23:15:04;;;;;;;4.30;1.83;;;15.80;70.50;;;;;;5054084;28;20385;-48
2022/07/05 23:17:30;;;;;;;2.88;1.58;;;15.80;70.50;;;;;;5053794;28;20487;-48
2022/07/05 23:19:55;;;;;;;2.17;1.80;;;15.80;70.50;;;;;;5053870;28;20025;-50
2022/07/05 23:22:21;;;;;;;3.50;1.73;;;15.70;70.80;;;;;;5052578;28;20111;-47
2022/07/05 23:24:56;;;;;;;3.10;1.50;;;15.60;71.00;;;;;;5053564;28;20036;-48
2022/07/05 23:27:26;;;;;;;24.27;5.22;;;15.70;71.30;;;;;;5053945;28;20465;-48
2022/07/05 23:29:52;;;;;;;;;;;15.70;70.90;;;;;;5054343;28;20017;-48
2022/07/05 23:32:18;;;;;;;1.50;1.40;;;15.50;71.30;;;;;;5053710;28;19916;-48
2022/07/05 23:34:43;;;;;;;3.05;1.75;;;15.50;71.40;;;;;;5053662;28;20028;-47
2022/07/05 23:37:10;;;;;;;5.53;1.80;;;15.40;71.60;;;;;;5053851;28;20442;-47
2022/07/05 23:39:37;;;;;;;6.22;2.33;;;15.40;71.50;;;;;;5053859;28;20017;-49
2022/07/05 23:42:03;;;;;;;3.17;1.67;;;15.30;71.30;;;;;;5053474;28;20124;-47
2022/07/05 23:44:29;;;;;;;3.45;1.38;;;15.30;71.40;;;;;;5053550;28;20037;-47
2022/07/05 23:46:55;;;;;;;6.45;2.30;;;15.20;71.00;;;;;;5053531;28;20558;-48
2022/07/05 23:49:21;;;;;;;4.07;1.95;;;15.20;70.90;;;;;;5053335;28;20384;-48
2022/07/05 23:51:47;;;;;;;6.82;1.98;;;15.10;70.90;;;;;;5053725;28;20154;-48
2022/07/05 23:54:13;;;;;;;2.35;1.60;;;15.10;71.00;;;;;;5053629;28;20488;-48
2022/07/05 23:56:38;;;;;;;6.35;2.03;;;15.00;71.20;;;;;;5053728;28;20479;-47
2022/07/05 23:59:04;;;;;;;2.53;1.90;;;15.00;70.90;;;;;;5052225;28;20021;-47
